Matthews, NC

9:39 PM EST on February 01, 2015 (GMT -0500)
Willow Oaks | Change Station
CLOSE
Current Station
Personal Weather Station
Location: Weddington, NC
Elevation: 710 ft
Nearby Weather Stations

Elev 710 ft 35.04 °N, 80.74 °W | Updated 1 second ago

Overcast
Overcast
56.9 °F
Feels Like 56.9 °F
N
3.0
Wind Variable Wind from East
Gusts 11.0 mph

Today
High -- | Low -- °F
--% Chance of Precip.
Yesterday
High -- | Low -- °F
Precip. -- in
7:21 AM 5:51 PM
Waxing Gibbous, 97% visible
Pressure 29.94 in
Visibility 10.0 miles
Clouds Scattered Clouds 5500 ft
Mostly Cloudy 7000 ft
Overcast 9000 ft
Dew Point 49 °F
Humidity 76%
Rainfall 0.02 in
Snow Depth Not available.
UV 0 out of 12
Pollen 3.10 out of 12
Air Quality Not available.
Flu Activity Not available.
METAR KEQY 020153Z AUTO 17007KT 130V210 10SM SCT055 BKN070 OVC090 14/07 A2990 RMK AO2 RAB0056E36 SLP136 P0000 T01390067

More Conditions Fewer Conditions

Pressure 29.94 in
Visibility 10.0 miles
Clouds Scattered Clouds 5500 ft
Mostly Cloudy 7000 ft
Overcast 9000 ft
Dew Point 49 °F
Humidity 76%
Rainfall 0.02 in
Snow Depth Not available.
UV 0 out of 12
Pollen 3.10 out of 12
Air Quality Not available.
Flu Activity Not available.
METAR KEQY 020153Z AUTO 17007KT 130V210 10SM SCT055 BKN070 OVC090 14/07 A2990 RMK AO2 RAB0056E36 SLP136 P0000 T01390067

More Conditions Fewer Conditions

10-Day Weather Forecast

Almanac

Astronomy

Feb. 01, 2015 Rise Set
Actual Time
Civil Twilight
Nautical Twilight
Astronomical Twilight
Moon
Length of Visible Light
Length of Day
Tomorrow will be .
, % of the Moon is Illuminated

Today's Extremes

State Highs State Lows

Community

WunderPhotos

Upload Photos

1,792,659 photos uploaded!

WunderBlogs® & News

Nearby

Air Quality

  Air Quality AQ Index Pollutant
Not available.

Snow Depth

Station Depth Elevation

Earthquake Activity

City Distance Mag. Time & Date
Minimum magnitude displayed is 2.5.

Coastal Water Temperatures

Place Temperature

Nearby Weather Stations